ADDS METAR Data INFO
IDs: Format: Raw Decoded Include TAF

Data at: 1529 UTC 18 Jun 2018

KACB 181515Z AUTO 31005KT 7SM RA OVC005 22/21 A2990 RMK AO2 T02150206
KACB 181455Z AUTO 28004KT 10SM RA OVC005 21/21 A2989 RMK AO2 T02130205
KACB 181435Z AUTO 00000KT 10SM RA OVC005 21/20 A2989 RMK AO2 T02120203
KACB 181415Z AUTO 23003KT 10SM RA OVC005 21/20 A2990 RMK AO2 T02120203
KACB 181355Z AUTO 00000KT 7SM RA OVC005 21/20 A2989 RMK AO2 T02120203
KACB 181335Z AUTO 23004KT 7SM RA OVC007 21/20 A2989 RMK AO2 T02130203
KACB 181315Z AUTO 23005KT 10SM RA OVC007 22/21 A2989 RMK AO2 T02150205
KACB 181255Z AUTO 24003KT 10SM RA OVC009 22/21 A2989 RMK AO2 T02160205
KACB 181235Z AUTO 24004KT 10SM OVC009 22/21 A2989 RMK AO2 T02180206
KACB 181215Z AUTO 00000KT 10SM OVC011 22/21 A2988 RMK AO2 T02180206
KACB 181155Z AUTO 00000KT 10SM OVC011 22/21 A2987 RMK AO2 T02180206 10218 20200
KACB 181135Z AUTO 20003KT 10SM OVC011 22/21 A2987 RMK AO2 T02170206
KACB 181115Z AUTO 00000KT 10SM OVC011 22/21 A2987 RMK AO2 T02150205
KACB 181055Z AUTO 00000KT 10SM OVC013 21/20 A2987 RMK AO2 T02130203
KACB 181035Z AUTO 00000KT 10SM OVC015 21/20 A2987 RMK AO2 T02110201
KACB 181015Z AUTO 00000KT 10SM BKN012 OVC019 21/20 A2986 RMK AO2 T02100200
KACB 180955Z AUTO 00000KT 10SM BKN012 BKN023 BKN055 21/20 A2987 RMK AO2 T02080200
KACB 180935Z AUTO 00000KT 10SM SCT070 21/20 A2986 RMK AO2 T02070198
KACB 180915Z AUTO 00000KT 10SM SCT070 SCT090 21/20 A2986 RMK AO2 T02050197
KACB 180855Z AUTO 17003KT 10SM SCT050 SCT070 BKN090 21/20 A2986 RMK AO2 T02050196
KACB 180835Z AUTO 00000KT 10SM SCT046 BKN050 BKN100 21/20 A2987 RMK AO2 T02070197
KACB 180815Z AUTO 00000KT 10SM OVC060 21/20 A2987 RMK AO2 T02070198
KACB 180755Z AUTO 21005KT 10SM SCT060 21/20 A2986 RMK AO2 T02060198
KACB 180735Z AUTO 20005KT 10SM CLR 21/20 A2986 RMK AO2 T02050198
KACB 180715Z AUTO 21003KT 10SM CLR 21/20 A2985 RMK AO2 T02050198
KACB 180655Z AUTO 22004KT 10SM CLR 20/20 A2985 RMK AO2 T02040197
KACB 180635Z AUTO 00000KT 10SM SCT120 20/20 A2985 RMK AO2 T02030196
KACB 180615Z AUTO 18003KT 7SM -RA SCT120 20/20 A2987 RMK AO2 T02020195
KACB 180555Z AUTO 24003KT 5SM -RA SCT013 SCT038 BKN120 20/20 A2989 RMK AO2 T02010195 10313 20201 403350200
KACB 180535Z AUTO 13005KT 2 1/2SM +RA SCT012 BKN046 OVC070 20/19 A2991 RMK AO2 VIS 1 1/2V4 T02010194
KACB 180515Z AUTO 24004KT 3SM +RA SCT023 BKN060 OVC070 21/20 A2993 RMK AO2 T02050196
KACB 180455Z AUTO 00000KT 2SM +RA SCT006 BKN027 OVC060 21/20 A2992 RMK AO2 T02050195
KACB 180435Z AUTO 00000KT 7SM RA SCT041 BKN060 OVC090 21/20 A2992 RMK AO2 T02070195
KACB 180415Z AUTO 34005KT 5SM +RA SCT039 BKN050 OVC060 21/19 A2993 RMK AO2 T02090194
KACB 180355Z AUTO 32010G16KT 10SM RA SCT035 BKN046 BKN055 23/19 A2992 RMK AO2 T02290185
KACB 180335Z AUTO 23005KT 10SM SCT070 28/21 A2987 RMK AO2 T02800205
KACB 180315Z AUTO 21005KT 10SM CLR 28/21 A2986 RMK AO2 T02810206
KACB 180255Z AUTO 20004KT 10SM CLR 28/21 A2986 RMK AO2 T02820206
KACB 180235Z AUTO 19003KT 10SM CLR 28/21 A2986 RMK AO2 T02820205
KACB 180215Z AUTO 20004KT 10SM CLR 29/20 A2986 RMK AO2 T02860203
KACB 180155Z AUTO 20005KT 10SM CLR 29/20 A2986 RMK AO2 T02860201
KACB 180135Z AUTO 00000KT 10SM CLR 29/20 A2987 RMK AO2 T02850200
KACB 180115Z AUTO 20003KT 10SM CLR 29/20 A2986 RMK AO2 T02900196
KACB 180055Z AUTO 22006KT 10SM CLR 30/19 A2986 RMK AO2 T02980193
KACB 180035Z AUTO 24004KT 10SM CLR 30/20 A2985 RMK AO2 T02980195
KACB 180015Z AUTO 22003KT 10SM CLR 31/20 A2985 RMK AO2 T03060195
KACB 172355Z AUTO 21006KT 10SM CLR 31/19 A2985 RMK AO2 T03140193 10335 20314
KACB 172335Z AUTO 23006KT 10SM CLR 32/19 A2984 RMK AO2 T03160194
KACB 172315Z AUTO 24007KT 10SM CLR 32/19 A2983 RMK AO2 T03210190
KACB 172255Z AUTO 23005KT 10SM CLR 33/19 A2984 RMK AO2 T03270193
KACB 172235Z AUTO 22006KT 10SM CLR 33/20 A2984 RMK AO2 T03260195
KACB 172215Z AUTO 23006G14KT 10SM CLR 33/20 A2986 RMK AO2 T03250197
KACB 172155Z AUTO 22006G17KT 10SM CLR 33/20 A2987 RMK AO2 T03260196
KACB 172135Z AUTO 22010G18KT 10SM CLR 33/19 A2987 RMK AO2 T03280194
KACB 172115Z AUTO 23006G14KT 10SM CLR 33/20 A2987 RMK AO2 T03310200
KACB 172055Z AUTO 23005G17KT 10SM CLR 33/20 A2988 RMK AO2 T03300203
KACB 172035Z AUTO 23007KT 190V250 10SM CLR 33/20 A2987 RMK AO2 T03310204
KACB 172015Z AUTO 23011G15KT 190V260 10SM CLR 33/20 A2988 RMK AO2 T03330203
KACB 171955Z AUTO 23007G18KT 10SM CLR 33/20 A2989 RMK AO2 T03340203
KACB 171935Z AUTO 23007KT 10SM CLR 32/21 A2989 RMK AO2 T03190208
KACB 171915Z AUTO 22008KT 10SM CLR 32/21 A2989 RMK AO2 T03200210
KACB 171855Z AUTO 20007KT 10SM CLR 32/22 A2990 RMK AO2 T03200215
KACB 171835Z AUTO 23006KT 200V260 10SM CLR 32/21 A2990 RMK AO2 T03190213
KACB 171815Z AUTO 24007KT 10SM CLR 32/21 A2990 RMK AO2 T03190213
KACB 171755Z AUTO 25005KT 10SM CLR 31/21 A2992 RMK AO2 T03120212 10314 20235
KACB 171735Z AUTO 24006KT 10SM CLR 31/21 A2992 RMK AO2 T03120212
KACB 171715Z AUTO 20007KT 10SM CLR 31/21 A2993 RMK AO2 T03140213
KACB 171655Z AUTO 21007KT 170V250 10SM SCT030 SCT060 31/22 A2994 RMK AO2 T03070220
KACB 171635Z AUTO 19006KT 10SM CLR 30/22 A2994 RMK AO2 T03010221
KACB 171615Z AUTO 22005KT 10SM CLR 30/22 A2995 RMK AO2 T02950217
KACB 171555Z AUTO 21006KT 10SM CLR 30/22 A2995 RMK AO2 T02950218
KACB 171535Z AUTO 00000KT 10SM SCT065 SCT070 SCT080 28/22 A2995 RMK AO2 T02820223
KACB 171515Z AUTO 21004KT 10SM SCT065 28/22 A2995 RMK AO2 T02750219
KACB 171455Z AUTO 20004KT 10SM CLR 26/22 A2994 RMK AO2 T02600222
KACB 171435Z AUTO 19003KT 10SM SCT060 SCT070 SCT080 25/22 A2994 RMK AO2 T02500217
KACB 171415Z AUTO 21006KT 10SM BKN060 BKN080 25/21 A2995 RMK AO2 T02470214
KACB 171355Z AUTO 18003KT 10SM BKN060 BKN070 25/21 A2995 RMK AO2 T02520210
KACB 171335Z AUTO 00000KT 10SM BKN060 BKN070 25/21 A2995 RMK AO2 T02500209
KACB 171315Z AUTO 00000KT 10SM OVC065 25/21 A2996 RMK AO2 T02450211
KACB 171255Z AUTO 00000KT 10SM BKN055 BKN075 25/21 A2996 RMK AO2 T02460206
KACB 171235Z AUTO 00000KT 10SM SCT055 SCT075 SCT085 25/21 A2995 RMK AO2 T02450205
KACB 171215Z AUTO 19003KT 10SM SCT075 24/20 A2995 RMK AO2 T02390201
KACB 171155Z AUTO 00000KT 10SM SCT075 23/20 A2995 RMK AO2 T02340199 10234 20200
KACB 171135Z AUTO 19003KT 10SM CLR 23/20 A2994 RMK AO2 T02300196
KACB 171115Z AUTO 19003KT 10SM CLR 23/20 A2994 RMK AO2 T02250195
KACB 171055Z AUTO 19003KT 10SM CLR 23/19 A2994 RMK AO2 T02250191
KACB 171035Z AUTO 19003KT 10SM CLR 22/19 A2994 RMK AO2 T02200190
KACB 171015Z AUTO 21003KT 10SM CLR 22/19 A2994 RMK AO2 T02200190
KACB 170955Z AUTO 21003KT 10SM CLR 22/19 A2993 RMK AO2 T02160189
KACB 170935Z AUTO 20003KT 10SM CLR 22/19 A2994 RMK AO2 T02180188
KACB 170915Z AUTO 20004KT 10SM CLR 22/19 A2994 RMK AO2 T02200187
KACB 170855Z AUTO 00000KT 10SM SCT050 22/19 A2995 RMK AO2 T02200187
KACB 170835Z AUTO 20003KT 10SM CLR 21/19 A2994 RMK AO2 T02120186
KACB 170815Z AUTO 00000KT 10SM CLR 20/18 A2995 RMK AO2 T02000183
KACB 170755Z AUTO 00000KT 10SM CLR 21/18 A2995 RMK AO2 T02060184
KACB 170735Z AUTO 23003KT 10SM CLR 21/19 A2994 RMK AO2 T02140185
KACB 170715Z AUTO 21003KT 10SM CLR 21/19 A2994 RMK AO2 T02130186
KACB 170655Z AUTO 20003KT 10SM CLR 21/19 A2995 RMK AO2 T02130187
KACB 170635Z AUTO 23003KT 10SM CLR 21/19 A2995 RMK AO2 T02130188
KACB 170615Z AUTO 20004KT 10SM CLR 22/19 A2996 RMK AO2 T02160188
KACB 170555Z AUTO 21003KT 10SM CLR 22/19 A2995 RMK AO2 T02170188 10245 20173 402480164
KACB 170535Z AUTO 00000KT 10SM CLR 21/20 A2995 RMK AO2 T02070200
KACB 170515Z AUTO 00000KT 7SM CLR 18/17 A2992 RMK AO2 T01750169
KACB 170455Z AUTO 00000KT 5SM BR CLR 18/17 A2994 RMK AO2 T01780173
KACB 170435Z AUTO 00000KT 7SM CLR 18/17 A2995 RMK AO2 T01750168
KACB 170415Z AUTO 00000KT 4SM BR CLR 17/17 A2997 RMK AO2 T01740168
KACB 170355Z AUTO 00000KT 2SM BR CLR 18/17 A2997 RMK AO2 T01750169
KACB 170335Z AUTO 00000KT 1SM BR VV007 18/17 A2997 RMK AO2 T01770171